Time;durP1;ratioP1;P1;durP2;ratioP2;P2;SDS_P1;SDS_P2;PMS_P1;PMS_P2;Temp;Humidity;BMP_temperature;BMP_pressure;BME280_temperature;BME280_humidity;BME280_pressure;Samples;Min_cycle;Max_cycle;Signal;HPM_P1;HPM_P2
2023/01/06 00:01:10;;;;;;;0.00;0.00;;;10.00;95.30;;;;;;4972322;28;20054;-71
2023/01/06 00:03:36;;;;;;;0.00;0.00;;;10.00;95.20;;;;;;4973495;28;20042;-71
2023/01/06 00:06:04;;;;;;;0.20;0.20;;;10.00;95.20;;;;;;4989610;28;20495;-71
2023/01/06 00:08:30;;;;;;;0.35;0.35;;;10.00;95.30;;;;;;4989005;28;20054;-71
2023/01/06 00:10:55;;;;;;;1.38;1.27;;;10.00;95.20;;;;;;4957058;28;20410;-71
2023/01/06 00:13:22;;;;;;;0.03;0.03;;;10.00;95.20;;;;;;4999832;28;20048;-71
2023/01/06 00:15:47;;;;;;;0.00;0.00;;;10.00;95.10;;;;;;4960216;28;20058;-71
2023/01/06 00:18:13;;;;;;;0.00;0.00;;;10.00;95.10;;;;;;5000696;28;20038;-72
2023/01/06 00:20:39;;;;;;;24.20;1.25;;;10.00;95.00;;;;;;5006891;28;20038;-71
2023/01/06 00:23:04;;;;;;;0.77;0.52;;;9.90;95.00;;;;;;5007744;28;20060;-71
2023/01/06 00:25:30;;;;;;;0.00;0.00;;;10.00;94.90;;;;;;4996733;28;20053;-72
2023/01/06 00:27:55;;;;;;;0.00;0.00;;;10.00;95.00;;;;;;4993392;28;20047;-71
2023/01/06 00:30:21;;;;;;;0.00;0.00;;;10.00;94.90;;;;;;4994595;28;20090;-71
2023/01/06 00:32:47;;;;;;;0.00;0.00;;;9.90;94.90;;;;;;4978927;28;20054;-71
2023/01/06 00:35:12;;;;;;;0.00;0.00;;;9.90;94.90;;;;;;4996412;28;20411;-71
2023/01/06 00:37:38;;;;;;;0.30;0.30;;;10.00;94.80;;;;;;5001433;28;20041;-71
2023/01/06 00:40:05;;;;;;;0.00;0.00;;;10.00;94.80;;;;;;4993311;28;20050;-71
2023/01/06 00:42:30;;;;;;;2.80;2.03;;;10.00;94.80;;;;;;5009764;28;20568;-72
2023/01/06 00:44:56;;;;;;;0.00;0.00;;;10.10;94.80;;;;;;5006589;28;20057;-72
2023/01/06 00:47:21;;;;;;;0.10;0.10;;;10.10;94.60;;;;;;4993117;28;20068;-72
2023/01/06 00:49:48;;;;;;;0.00;0.00;;;10.00;94.60;;;;;;4980521;28;20178;-72
2023/01/06 00:52:15;;;;;;;0.00;0.00;;;10.00;94.60;;;;;;4994779;28;20052;-71
2023/01/06 00:54:41;;;;;;;0.00;0.00;;;10.10;94.60;;;;;;5012413;28;20137;-72
2023/01/06 00:57:07;;;;;;;0.00;0.00;;;10.10;94.50;;;;;;5011987;28;20487;-71
2023/01/06 00:59:33;;;;;;;0.00;0.00;;;10.00;94.40;;;;;;4994507;28;20056;-72
2023/01/06 01:01:59;;;;;;;0.70;0.70;;;10.00;94.40;;;;;;4992098;28;20030;-71
2023/01/06 01:04:25;;;;;;;0.08;0.08;;;10.00;94.30;;;;;;5003012;28;20046;-72
2023/01/06 01:06:52;;;;;;;0.00;0.00;;;10.00;94.30;;;;;;5010916;28;20042;-72
2023/01/06 01:09:23;;;;;;;0.00;0.00;;;10.00;94.30;;;;;;5012238;28;20125;-72
2023/01/06 01:14:46;;;;;;;0.00;0.00;;;9.90;94.10;;;;;;5005200;28;20474;-72
2023/01/06 01:17:13;;;;;;;0.00;0.00;;;10.00;94.10;;;;;;4994132;28;20042;-72
2023/01/06 01:19:39;;;;;;;0.00;0.00;;;9.90;94.00;;;;;;5011700;28;20570;-71
2023/01/06 01:22:05;;;;;;;2.47;2.28;;;10.00;94.00;;;;;;4994126;28;20038;-74
2023/01/06 01:24:31;;;;;;;0.00;0.00;;;10.00;94.10;;;;;;5011481;28;20053;-72
2023/01/06 01:26:57;;;;;;;0.00;0.00;;;10.00;94.00;;;;;;4993969;28;20690;-72
2023/01/06 01:29:23;;;;;;;0.00;0.00;;;9.90;93.90;;;;;;4994359;28;20054;-72
2023/01/06 01:31:48;;;;;;;0.00;0.00;;;9.90;93.90;;;;;;4993529;28;20049;-72
2023/01/06 01:34:15;;;;;;;0.00;0.00;;;9.90;93.90;;;;;;4977698;28;20061;-72
2023/01/06 01:36:43;;;;;;;0.00;0.00;;;9.90;93.80;;;;;;4993492;28;20038;-73
2023/01/06 01:39:11;;;;;;;0.00;0.00;;;9.90;93.70;;;;;;5010899;28;20053;-72
2023/01/06 01:41:37;;;;;;;0.10;0.10;;;9.90;93.70;;;;;;4994255;28;20077;-72
2023/01/06 01:44:41;;;;;;;0.00;0.00;;;9.90;93.60;;;;;;4993236;28;20509;-72
2023/01/06 01:47:08;;;;;;;3.60;1.27;;;9.80;93.60;;;;;;4993146;28;20053;-72
2023/01/06 01:49:38;;;;;;;0.00;0.00;;;9.80;93.60;;;;;;5009314;28;20414;-72
2023/01/06 01:52:05;;;;;;;0.00;0.00;;;9.90;93.60;;;;;;5011439;28;20046;-73
2023/01/06 01:54:33;;;;;;;0.00;0.00;;;9.90;93.70;;;;;;4998588;28;20584;-73
2023/01/06 01:57:09;;;;;;;0.00;0.00;;;9.90;93.60;;;;;;4989666;28;20045;-73
2023/01/06 01:59:37;;;;;;;0.00;0.00;;;9.80;93.60;;;;;;4998544;28;20055;-72
2023/01/06 02:02:02;;;;;;;0.00;0.00;;;9.90;93.60;;;;;;4993241;28;20038;-72
2023/01/06 02:04:30;;;;;;;0.00;0.00;;;9.80;93.50;;;;;;5001893;28;20173;-72
2023/01/06 02:06:56;;;;;;;0.00;0.00;;;9.80;93.50;;;;;;4995379;28;20050;-72
2023/01/06 02:09:45;;;;;;;0.00;0.00;;;9.90;93.50;;;;;;4999376;28;20061;-72
2023/01/06 02:12:11;;;;;;;1.13;1.02;;;9.80;93.50;;;;;;5010998;28;20049;-72
2023/01/06 02:14:37;;;;;;;0.00;0.00;;;9.90;93.40;;;;;;4993057;28;20053;-72
2023/01/06 02:17:38;;;;;;;0.00;0.00;;;9.90;93.40;;;;;;5008178;28;20932;-71
2023/01/06 02:20:26;;;;;;;0.00;0.00;;;9.80;93.40;;;;;;4972598;28;20058;-71
2023/01/06 02:23:29;;;;;;;0.10;0.10;;;9.90;93.40;;;;;;4993577;28;20054;-72
2023/01/06 02:26:46;;;;;;;0.13;0.13;;;9.90;93.30;;;;;;4987137;28;20188;-72
2023/01/06 02:29:50;;;;;;;0.00;0.00;;;9.90;93.30;;;;;;4979998;28;20042;-71
2023/01/06 02:32:34;;;;;;;0.00;0.00;;;10.00;93.10;;;;;;5009204;28;20521;-72
2023/01/06 02:35:30;;;;;;;0.10;0.10;;;10.00;93.10;;;;;;4999097;28;20380;-72
2023/01/06 02:38:27;;;;;;;0.00;0.00;;;9.90;92.90;;;;;;4999066;28;20046;-72
2023/01/06 02:41:20;;;;;;;0.00;0.00;;;10.00;92.80;;;;;;4973823;28;20089;-72
2023/01/06 02:44:17;;;;;;;0.00;0.00;;;10.00;92.70;;;;;;5002491;28;20139;-73
2023/01/06 02:47:10;;;;;;;0.00;0.00;;;10.00;92.70;;;;;;5007243;28;20054;-72
2023/01/06 02:49:56;;;;;;;0.00;0.00;;;10.00;92.70;;;;;;4999560;28;20101;-73
2023/01/06 02:52:43;;;;;;;0.00;0.00;;;10.00;92.40;;;;;;4990558;28;20113;-72
2023/01/06 02:55:29;;;;;;;0.00;0.00;;;10.00;92.50;;;;;;4972860;28;20368;-71
2023/01/06 02:58:03;;;;;;;0.10;0.10;;;10.10;92.40;;;;;;4990026;28;20554;-72
2023/01/06 03:00:49;;;;;;;0.00;0.00;;;10.00;92.40;;;;;;4990288;28;20050;-71
2023/01/06 03:03:19;;;;;;;0.00;0.00;;;10.00;92.40;;;;;;4989962;28;20089;-72
2023/01/06 03:05:49;;;;;;;0.00;0.00;;;10.00;92.30;;;;;;4990130;28;20050;-73
2023/01/06 03:08:20;;;;;;;0.00;0.00;;;10.00;92.40;;;;;;4990212;28;20410;-72
2023/01/06 03:10:48;;;;;;;0.00;0.00;;;10.00;92.50;;;;;;4972033;28;20566;-73
2023/01/06 03:13:24;;;;;;;0.00;0.00;;;10.00;92.50;;;;;;4990231;28;20046;-72
2023/01/06 03:15:50;;;;;;;0.00;0.00;;;10.00;92.60;;;;;;4972812;28;20042;-72
2023/01/06 03:18:16;;;;;;;0.20;0.20;;;10.00;92.60;;;;;;4972625;28;20100;-73
2023/01/06 03:20:41;;;;;;;1.38;0.52;;;10.00;92.70;;;;;;4989844;28;20204;-72
2023/01/06 03:23:07;;;;;;;0.00;0.00;;;10.00;92.70;;;;;;4989781;28;20046;-73
2023/01/06 03:25:33;;;;;;;0.50;0.50;;;10.10;92.70;;;;;;4991024;28;20042;-72
2023/01/06 03:27:58;;;;;;;0.80;0.80;;;10.10;92.60;;;;;;4989298;28;20097;-73
2023/01/06 03:30:33;;;;;;;0.45;0.30;;;10.10;92.70;;;;;;4990263;28;20049;-72
2023/01/06 03:33:04;;;;;;;0.00;0.00;;;10.10;92.70;;;;;;4989937;28;20489;-72
2023/01/06 03:35:52;;;;;;;0.10;0.10;;;10.10;92.70;;;;;;4989764;28;20045;-72
2023/01/06 03:38:48;;;;;;;0.08;0.08;;;10.10;92.70;;;;;;4972173;28;20045;-72
2023/01/06 03:44:52;;;;;;;0.00;0.00;;;10.10;92.70;;;;;;4971942;28;20054;-71
2023/01/06 03:47:40;;;;;;;0.00;0.00;;;10.10;92.70;;;;;;4971517;28;20082;-72
2023/01/06 03:50:11;;;;;;;0.00;0.00;;;10.10;92.60;;;;;;4993807;28;20050;-73
2023/01/06 03:52:44;;;;;;;0.13;0.13;;;10.10;92.50;;;;;;4991858;28;20066;-72
2023/01/06 03:55:22;;;;;;;0.80;0.77;;;10.10;92.60;;;;;;4979999;28;20047;-73
2023/01/06 03:57:51;;;;;;;0.25;0.25;;;10.10;92.40;;;;;;4989804;28;20557;-72
2023/01/06 04:00:25;;;;;;;0.00;0.00;;;10.10;92.20;;;;;;4999266;28;20581;-72
2023/01/06 04:02:50;;;;;;;0.00;0.00;;;10.10;92.20;;;;;;5002588;28;20049;-72
2023/01/06 04:05:19;;;;;;;0.00;0.00;;;10.20;92.10;;;;;;5008024;28;20526;-72
2023/01/06 04:07:45;;;;;;;0.00;0.00;;;10.20;91.90;;;;;;5002936;28;20042;-72
2023/01/06 04:10:12;;;;;;;0.10;0.10;;;10.20;91.70;;;;;;4996160;28;20042;-72
2023/01/06 04:12:38;;;;;;;0.00;0.00;;;10.20;91.70;;;;;;4989452;28;20447;-72
2023/01/06 04:15:16;;;;;;;0.00;0.00;;;10.30;91.60;;;;;;4998566;28;20097;-72
2023/01/06 04:17:43;;;;;;;0.10;0.10;;;10.20;91.40;;;;;;4972353;28;20105;-72
2023/01/06 04:20:15;;;;;;;0.40;0.40;;;10.30;91.30;;;;;;4992045;28;20054;-72
2023/01/06 04:22:40;;;;;;;0.00;0.00;;;10.30;91.30;;;;;;4976151;28;20519;-72
2023/01/06 04:25:06;;;;;;;0.00;0.00;;;10.30;91.20;;;;;;4990756;28;20050;-72
2023/01/06 04:27:32;;;;;;;0.00;0.00;;;10.30;91.20;;;;;;4987231;28;20034;-72
2023/01/06 04:29:57;;;;;;;0.00;0.00;;;10.30;91.00;;;;;;4998477;28;20042;-73
2023/01/06 04:32:24;;;;;;;0.17;0.17;;;10.40;91.00;;;;;;4982919;28;20100;-72
2023/01/06 04:34:49;;;;;;;0.00;0.00;;;10.40;90.90;;;;;;4990300;28;20061;-72
2023/01/06 04:37:15;;;;;;;0.43;0.43;;;10.30;90.60;;;;;;5001419;28;20036;-73
2023/01/06 04:39:41;;;;;;;0.00;0.00;;;10.40;90.50;;;;;;4988627;28;20108;-73
2023/01/06 04:42:07;;;;;;;0.10;0.10;;;10.40;90.30;;;;;;5002346;28;20621;-71
2023/01/06 04:44:32;;;;;;;0.00;0.00;;;10.40;90.10;;;;;;4993047;28;20402;-72
2023/01/06 04:46:58;;;;;;;0.00;0.00;;;10.40;90.20;;;;;;4995235;28;20422;-72
2023/01/06 04:49:23;;;;;;;0.10;0.10;;;10.40;90.20;;;;;;4988582;28;20074;-72
2023/01/06 04:51:49;;;;;;;0.00;0.00;;;10.40;90.20;;;;;;4974938;28;20046;-71
2023/01/06 04:54:15;;;;;;;0.00;0.00;;;10.40;90.00;;;;;;5008810;28;20053;-72
2023/01/06 04:56:40;;;;;;;0.00;0.00;;;10.40;89.90;;;;;;5009140;28;20037;-72
2023/01/06 04:59:06;;;;;;;0.00;0.00;;;10.50;89.90;;;;;;5012068;28;20049;-72
2023/01/06 05:01:32;;;;;;;1.05;0.38;;;10.40;89.90;;;;;;4994203;28;20100;-72
2023/01/06 05:03:57;;;;;;;0.00;0.00;;;10.40;90.00;;;;;;4994281;28;20082;-72
2023/01/06 05:06:23;;;;;;;0.00;0.00;;;10.40;90.00;;;;;;5011998;28;20053;-72
2023/01/06 05:08:49;;;;;;;0.00;0.00;;;10.30;89.80;;;;;;5011773;28;20125;-72
2023/01/06 05:11:19;;;;;;;0.00;0.00;;;10.50;89.90;;;;;;5011957;28;20042;-73
2023/01/06 05:13:45;;;;;;;0.00;0.00;;;10.40;89.90;;;;;;5011979;28;20424;-72
2023/01/06 05:16:27;;;;;;;0.00;0.00;;;10.40;90.10;;;;;;4994454;28;20050;-72
2023/01/06 05:18:54;;;;;;;0.25;0.25;;;10.40;90.10;;;;;;5011262;28;20056;-72
2023/01/06 05:21:20;;;;;;;0.00;0.00;;;10.40;90.30;;;;;;5011961;28;20570;-71
2023/01/06 05:23:45;;;;;;;0.00;0.00;;;10.30;90.50;;;;;;5010748;28;20046;-72
2023/01/06 05:26:23;;;;;;;0.00;0.00;;;10.20;90.70;;;;;;5012281;28;20042;-72
2023/01/06 05:28:48;;;;;;;0.00;0.00;;;10.20;90.90;;;;;;5011390;28;20552;-71
2023/01/06 05:31:14;;;;;;;0.00;0.00;;;10.10;91.10;;;;;;5011579;28;20050;-71
2023/01/06 05:33:40;;;;;;;0.00;0.00;;;10.10;91.30;;;;;;5011193;28;20438;-72
2023/01/06 05:36:12;;;;;;;0.00;0.00;;;10.10;91.40;;;;;;5011722;28;20052;-72
2023/01/06 05:38:37;;;;;;;0.00;0.00;;;10.20;91.50;;;;;;4992886;28;20687;-71
2023/01/06 05:41:03;;;;;;;0.00;0.00;;;10.10;91.50;;;;;;4992641;28;20041;-71
2023/01/06 05:43:31;;;;;;;0.00;0.00;;;10.00;92.00;;;;;;5011211;28;20034;-71
2023/01/06 05:45:56;;;;;;;0.00;0.00;;;10.00;92.10;;;;;;5011193;28;20054;-71
2023/01/06 05:48:25;;;;;;;0.00;0.00;;;9.90;92.20;;;;;;5010222;28;20041;-71
2023/01/06 05:50:50;;;;;;;0.00;0.00;;;9.90;92.40;;;;;;4973600;28;20058;-72
2023/01/06 05:53:16;;;;;;;0.00;0.00;;;9.90;92.50;;;;;;4991805;28;20487;-71
2023/01/06 05:55:41;;;;;;;0.00;0.00;;;9.90;92.60;;;;;;4991446;28;20108;-72
2023/01/06 05:58:07;;;;;;;0.00;0.00;;;9.80;92.70;;;;;;4991466;28;20511;-72
2023/01/06 06:00:33;;;;;;;0.05;0.05;;;9.80;92.90;;;;;;4983261;28;20047;-72
2023/01/06 06:02:58;;;;;;;0.10;0.10;;;9.90;92.90;;;;;;4992477;28;20556;-71
2023/01/06 06:05:24;;;;;;;0.00;0.00;;;9.80;93.00;;;;;;5008363;28;20125;-72
2023/01/06 06:07:56;;;;;;;0.00;0.00;;;9.70;93.20;;;;;;5005315;28;20410;-72
2023/01/06 06:10:22;;;;;;;0.00;0.00;;;9.70;93.40;;;;;;4990177;28;20097;-71
2023/01/06 06:12:51;;;;;;;0.08;0.08;;;9.70;93.40;;;;;;4980844;28;20097;-72
2023/01/06 06:15:17;;;;;;;0.00;0.00;;;9.70;93.50;;;;;;4987616;28;20515;-72
2023/01/06 06:17:42;;;;;;;0.03;0.03;;;9.60;93.60;;;;;;4991265;28;20050;-72
2023/01/06 06:20:08;;;;;;;0.00;0.00;;;9.60;93.80;;;;;;4990936;28;20056;-72
2023/01/06 06:22:34;;;;;;;0.00;0.00;;;9.60;93.90;;;;;;4992211;28;20046;-71
2023/01/06 06:24:59;;;;;;;0.00;0.00;;;9.60;93.90;;;;;;4975699;28;20116;-71
2023/01/06 06:27:25;;;;;;;0.00;0.00;;;9.60;94.00;;;;;;4961091;28;20045;-71
2023/01/06 06:29:50;;;;;;;0.00;0.00;;;9.60;94.30;;;;;;4989367;28;20125;-72
2023/01/06 06:32:16;;;;;;;0.52;0.52;;;9.60;94.20;;;;;;4990924;28;20066;-72
2023/01/06 06:34:41;;;;;;;0.00;0.00;;;9.70;94.30;;;;;;4990642;28;20045;-71
2023/01/06 06:37:07;;;;;;;0.00;0.00;;;9.70;94.20;;;;;;4990538;28;20050;-72
2023/01/06 06:39:32;;;;;;;0.00;0.00;;;9.70;94.50;;;;;;4978445;28;20080;-71
2023/01/06 06:41:58;;;;;;;2.35;2.20;;;9.70;94.50;;;;;;4956095;28;20058;-71
2023/01/06 06:44:24;;;;;;;0.00;0.00;;;9.70;94.50;;;;;;4990410;28;20041;-72
2023/01/06 06:46:49;;;;;;;0.00;0.00;;;9.80;94.60;;;;;;4990382;28;20050;-71
2023/01/06 06:49:15;;;;;;;0.00;0.00;;;9.80;94.70;;;;;;4989837;28;20502;-71
2023/01/06 06:51:40;;;;;;;0.00;0.00;;;9.80;94.70;;;;;;4974139;28;20061;-71
2023/01/06 06:54:06;;;;;;;0.00;0.00;;;9.80;94.80;;;;;;5008336;28;20066;-71
2023/01/06 06:56:31;;;;;;;0.00;0.00;;;9.80;94.70;;;;;;5009092;28;20061;-71
2023/01/06 06:58:57;;;;;;;0.00;0.00;;;9.80;94.80;;;;;;4990799;28;20050;-72
2023/01/06 07:01:23;;;;;;;0.00;0.00;;;9.90;94.70;;;;;;5008507;28;20046;-73
2023/01/06 07:03:49;;;;;;;0.00;0.00;;;9.90;94.70;;;;;;5009660;28;20457;-73
2023/01/06 07:06:20;;;;;;;0.00;0.00;;;10.00;94.50;;;;;;5007589;28;20057;-72
2023/01/06 07:08:46;;;;;;;0.00;0.00;;;10.10;94.20;;;;;;5007843;28;20081;-72
2023/01/06 07:11:12;;;;;;;0.00;0.00;;;10.00;94.20;;;;;;5008470;28;20136;-73
2023/01/06 07:13:38;;;;;;;0.00;0.00;;;9.80;93.70;;;;;;5009687;28;20055;-72
2023/01/06 07:16:05;;;;;;;0.15;0.15;;;9.70;93.40;;;;;;5008241;28;20054;-72
2023/01/06 07:18:30;;;;;;;0.15;0.15;;;9.70;93.00;;;;;;4976119;28;20054;-72
2023/01/06 07:20:56;;;;;;;0.00;0.00;;;9.60;92.50;;;;;;5004818;28;20058;-72
2023/01/06 07:23:22;;;;;;;1.08;0.70;;;9.40;92.00;;;;;;4989930;28;20927;-71
2023/01/06 07:25:53;;;;;;;1.13;1.13;;;9.30;92.10;;;;;;4986272;28;20057;-79
2023/01/06 07:28:19;;;;;;;0.00;0.00;;;9.10;91.50;;;;;;5008700;28;20050;-72
2023/01/06 07:30:44;;;;;;;0.00;0.00;;;9.00;91.40;;;;;;5008420;28;20053;-74
2023/01/06 07:33:10;;;;;;;0.00;0.00;;;8.90;91.20;;;;;;4988724;28;20053;-73
2023/01/06 07:35:36;;;;;;;0.00;0.00;;;8.90;91.30;;;;;;4992175;28;20053;-73
2023/01/06 07:38:06;;;;;;;0.10;0.10;;;8.70;91.30;;;;;;4967213;28;20042;-73
2023/01/06 07:40:32;;;;;;;0.00;0.00;;;8.70;91.20;;;;;;4982014;28;20399;-73
2023/01/06 07:43:01;;;;;;;0.32;0.32;;;8.60;91.10;;;;;;4984676;28;20145;-73
2023/01/06 07:45:27;;;;;;;0.00;0.00;;;8.40;90.80;;;;;;4998707;28;20057;-73
2023/01/06 07:47:54;;;;;;;0.00;0.00;;;8.30;90.90;;;;;;4969027;28;20088;-73
2023/01/06 07:50:20;;;;;;;0.00;0.00;;;8.20;91.20;;;;;;5003007;28;20042;-74
2023/01/06 07:52:45;;;;;;;0.00;0.00;;;8.20;91.30;;;;;;5005148;28;20498;-73
2023/01/06 07:55:11;;;;;;;0.00;0.00;;;8.10;91.30;;;;;;4995163;28;20057;-73
2023/01/06 07:57:37;;;;;;;0.10;0.10;;;8.00;91.40;;;;;;5003131;28;20053;-74
2023/01/06 08:00:03;;;;;;;0.00;0.00;;;7.90;91.50;;;;;;4984257;28;20049;-74
2023/01/06 08:02:29;;;;;;;0.10;0.10;;;8.00;91.70;;;;;;5004952;28;20499;-74
2023/01/06 08:04:54;;;;;;;0.00;0.00;;;7.90;91.80;;;;;;4998439;28;20046;-71
2023/01/06 08:07:20;;;;;;;0.00;0.00;;;7.90;91.70;;;;;;4985938;28;20046;-70
2023/01/06 08:09:45;;;;;;;0.00;0.00;;;7.90;91.80;;;;;;4990680;28;20628;-71
2023/01/06 08:12:11;;;;;;;0.10;0.10;;;7.80;91.90;;;;;;4996260;28;20189;-71
2023/01/06 08:14:37;;;;;;;0.00;0.00;;;7.70;92.00;;;;;;4999494;28;20112;-69
2023/01/06 08:17:02;;;;;;;0.45;0.45;;;7.70;92.20;;;;;;5002741;28;20061;-70
2023/01/06 08:19:28;;;;;;;0.10;0.10;;;7.70;92.30;;;;;;5004193;28;20053;-73
2023/01/06 08:21:53;;;;;;;7.38;3.13;;;7.70;92.30;;;;;;4984602;28;20127;-71
2023/01/06 08:24:19;;;;;;;0.00;0.00;;;7.70;92.40;;;;;;5005018;28;20197;-71
2023/01/06 08:26:45;;;;;;;0.00;0.00;;;7.70;92.40;;;;;;5004537;28;20062;-71
2023/01/06 08:29:10;;;;;;;0.00;0.00;;;7.70;92.50;;;;;;4982487;28;20136;-74
2023/01/06 08:31:36;;;;;;;0.00;0.00;;;7.70;92.50;;;;;;4998652;28;20054;-73
2023/01/06 08:34:01;;;;;;;0.30;0.30;;;7.60;92.50;;;;;;4985793;28;20125;-73
2023/01/06 08:36:27;;;;;;;0.00;0.00;;;7.60;92.60;;;;;;5006480;28;20056;-73
2023/01/06 08:38:53;;;;;;;0.35;0.35;;;7.60;92.60;;;;;;5006558;28;20120;-73
2023/01/06 08:41:19;;;;;;;0.00;0.00;;;7.70;92.60;;;;;;4987909;28;20503;-72
2023/01/06 08:43:45;;;;;;;0.00;0.00;;;7.70;92.50;;;;;;4989899;28;20061;-72
2023/01/06 08:46:14;;;;;;;0.00;0.00;;;7.60;92.60;;;;;;5007906;28;20054;-72
2023/01/06 08:48:39;;;;;;;0.00;0.00;;;7.60;92.70;;;;;;4989571;28;20047;-72
2023/01/06 08:51:11;;;;;;;0.00;0.00;;;7.70;92.70;;;;;;5001901;28;20050;-71
2023/01/06 08:53:37;;;;;;;0.00;0.00;;;7.80;92.70;;;;;;4978101;28;20140;-71
2023/01/06 08:56:10;;;;;;;0.00;0.00;;;7.80;92.70;;;;;;4978920;28;20050;-71
2023/01/06 08:58:35;;;;;;;0.00;0.00;;;7.80;92.80;;;;;;4975700;28;20044;-71
2023/01/06 09:01:01;;;;;;;0.10;0.10;;;7.90;92.80;;;;;;4972530;28;20053;-71
2023/01/06 09:03:27;;;;;;;0.00;0.00;;;7.90;92.80;;;;;;4997383;28;20053;-71
2023/01/06 09:05:55;;;;;;;0.00;0.00;;;7.90;92.80;;;;;;5001693;28;20045;-72
2023/01/06 09:08:21;;;;;;;0.10;0.10;;;8.00;92.90;;;;;;4987221;28;20034;-70
2023/01/06 09:10:50;;;;;;;0.00;0.00;;;8.00;92.80;;;;;;5006088;28;20069;-71
2023/01/06 09:13:16;;;;;;;0.00;0.00;;;8.10;92.90;;;;;;5006062;28;20041;-72
2023/01/06 09:15:43;;;;;;;0.00;0.00;;;8.10;92.70;;;;;;4984369;28;20072;-71
2023/01/06 09:18:09;;;;;;;0.00;0.00;;;8.10;92.80;;;;;;4986617;28;20062;-69
2023/01/06 09:20:36;;;;;;;0.00;0.00;;;8.10;92.80;;;;;;4988706;28;20033;-72
2023/01/06 09:23:02;;;;;;;1.30;0.90;;;8.20;92.70;;;;;;5003195;28;20475;-69
2023/01/06 09:25:27;;;;;;;0.00;0.00;;;8.20;92.60;;;;;;5003485;28;20133;-71
2023/01/06 09:27:53;;;;;;;1.85;1.75;;;8.30;92.60;;;;;;4995405;28;20042;-70
2023/01/06 09:30:18;;;;;;;2.17;1.38;;;8.40;92.50;;;;;;5007707;28;20125;-72
2023/01/06 09:32:44;;;;;;;0.00;0.00;;;8.50;92.40;;;;;;4987663;28;20100;-72
2023/01/06 09:35:10;;;;;;;0.00;0.00;;;8.50;92.30;;;;;;5001794;28;20057;-72
2023/01/06 09:37:35;;;;;;;0.00;0.00;;;8.50;92.20;;;;;;4988151;28;20041;-70
2023/01/06 09:40:02;;;;;;;0.00;0.00;;;8.60;92.00;;;;;;4989802;28;20074;-79
2023/01/06 09:42:36;;;;;;;0.63;0.63;;;8.60;91.80;;;;;;4982150;28;20033;-76
2023/01/06 09:45:29;;;;;;;0.00;0.00;;;8.70;91.80;;;;;;5002172;28;20507;-69
2023/01/06 09:47:58;;;;;;;0.00;0.00;;;8.70;91.50;;;;;;5002869;28;20085;-71
2023/01/06 09:50:44;;;;;;;0.00;0.00;;;8.80;91.30;;;;;;5007135;28;20772;-70
2023/01/06 09:53:15;;;;;;;0.00;0.00;;;8.80;91.20;;;;;;5005716;28;20070;-70
2023/01/06 09:55:56;;;;;;;0.00;0.00;;;8.80;91.30;;;;;;4987949;28;20057;-70
2023/01/06 09:58:46;;;;;;;0.00;0.00;;;8.90;91.00;;;;;;5004772;28;20101;-71
2023/01/06 10:01:15;;;;;;;0.10;0.10;;;8.80;90.90;;;;;;5004494;28;20033;-70
2023/01/06 10:03:44;;;;;;;0.00;0.00;;;8.80;90.80;;;;;;5001225;28;20089;-70
2023/01/06 10:06:40;;;;;;;0.10;0.10;;;8.90;90.90;;;;;;5003804;28;20044;-70
2023/01/06 10:09:44;;;;;;;0.05;0.05;;;8.90;90.90;;;;;;4989472;28;20112;-71
2023/01/06 10:12:17;;;;;;;0.00;0.00;;;8.90;90.80;;;;;;4923109;29;20492;-71
2023/01/06 10:14:48;;;;;;;0.00;0.00;;;8.90;90.60;;;;;;4926852;29;20452;-70
2023/01/06 10:17:19;;;;;;;0.00;0.00;;;8.90;90.30;;;;;;4969944;28;20053;-71
2023/01/06 10:20:12;;;;;;;0.00;0.00;;;8.90;90.20;;;;;;5001002;28;20054;-70
2023/01/06 10:22:45;;;;;;;0.08;0.08;;;8.90;90.30;;;;;;5007314;28;20296;-70
2023/01/06 10:25:22;;;;;;;0.00;0.00;;;9.10;90.10;;;;;;4980233;28;20076;-71
2023/01/06 10:28:00;;;;;;;0.00;0.00;;;9.00;90.20;;;;;;5006130;28;20392;-71
2023/01/06 10:30:42;;;;;;;0.00;0.00;;;9.00;90.10;;;;;;5004518;28;20065;-71
2023/01/06 10:33:24;;;;;;;0.00;0.00;;;9.00;90.20;;;;;;5003024;28;20712;-71
2023/01/06 10:35:52;;;;;;;0.00;0.00;;;9.00;90.20;;;;;;4999392;28;20133;-70
2023/01/06 10:38:24;;;;;;;0.00;0.00;;;9.00;90.10;;;;;;5005907;28;20622;-70
2023/01/06 10:40:51;;;;;;;1.08;0.98;;;9.10;90.30;;;;;;5003936;28;20041;-69
2023/01/06 10:43:21;;;;;;;0.00;0.00;;;9.00;90.20;;;;;;5003225;28;20046;-72
2023/01/06 10:45:47;;;;;;;0.10;0.10;;;9.10;90.10;;;;;;4997666;28;20042;-70
2023/01/06 10:48:25;;;;;;;0.00;0.00;;;9.10;90.00;;;;;;5004533;28;20069;-69
2023/01/06 10:50:51;;;;;;;0.00;0.00;;;9.10;89.70;;;;;;4997796;28;20058;-69
2023/01/06 10:53:17;;;;;;;0.47;0.47;;;9.10;89.90;;;;;;5002699;28;20424;-70
2023/01/06 10:55:48;;;;;;;0.00;0.00;;;9.10;89.90;;;;;;4986362;28;20066;-70
2023/01/06 10:58:34;;;;;;;0.00;0.00;;;9.10;89.70;;;;;;5002581;28;20104;-69
2023/01/06 11:01:16;;;;;;;0.05;0.05;;;9.10;89.90;;;;;;4970936;28;20066;-69
2023/01/06 11:03:43;;;;;;;0.00;0.00;;;9.20;89.90;;;;;;4985832;28;20058;-70
2023/01/06 11:06:21;;;;;;;0.00;0.00;;;9.30;89.90;;;;;;4996917;28;20062;-70
2023/01/06 11:08:46;;;;;;;0.00;0.00;;;9.20;89.70;;;;;;4996644;28;20485;-70
2023/01/06 11:11:17;;;;;;;1.02;1.00;;;9.20;89.70;;;;;;4998214;28;20129;-69
2023/01/06 11:13:49;;;;;;;0.00;0.00;;;9.30;89.70;;;;;;5001521;28;20038;-69
2023/01/06 11:16:24;;;;;;;0.00;0.00;;;9.30;89.20;;;;;;5005969;28;20049;-70
2023/01/06 11:18:56;;;;;;;0.00;0.00;;;9.40;89.20;;;;;;4987637;28;20049;-69
2023/01/06 11:21:40;;;;;;;0.00;0.00;;;9.40;88.90;;;;;;4997098;28;20053;-69
2023/01/06 11:24:21;;;;;;;0.00;0.00;;;9.40;88.80;;;;;;5003898;28;20586;-70
2023/01/06 11:26:52;;;;;;;0.00;0.00;;;9.40;88.70;;;;;;4998138;28;20038;-69
2023/01/06 11:29:24;;;;;;;0.00;0.00;;;9.40;88.70;;;;;;4998174;28;20054;-69
2023/01/06 11:31:50;;;;;;;0.63;0.63;;;9.50;88.70;;;;;;5004536;28;20077;-69
2023/01/06 11:34:26;;;;;;;25.20;2.63;;;9.50;87.90;;;;;;5006736;28;20054;-69
2023/01/06 11:36:52;;;;;;;0.00;0.00;;;9.60;87.70;;;;;;4960194;28;20076;-69
2023/01/06 11:39:33;;;;;;;2.10;1.65;;;9.60;87.60;;;;;;4987557;28;20054;-69
2023/01/06 11:42:13;;;;;;;0.35;0.35;;;9.60;87.40;;;;;;4966978;28;20080;-69
2023/01/06 11:44:41;;;;;;;0.10;0.10;;;9.60;87.40;;;;;;4999231;28;20056;-69
2023/01/06 11:47:14;;;;;;;0.00;0.00;;;9.60;87.00;;;;;;4998844;28;20050;-70
2023/01/06 11:49:59;;;;;;;0.00;0.00;;;9.60;87.40;;;;;;5005202;28;20046;-69
2023/01/06 11:52:30;;;;;;;0.00;0.00;;;9.50;86.90;;;;;;5000592;28;20050;-68
2023/01/06 11:54:59;;;;;;;0.00;0.00;;;9.50;87.20;;;;;;4990633;28;20058;-68
2023/01/06 11:57:43;;;;;;;0.00;0.00;;;9.60;87.10;;;;;;4994761;28;20038;-69
2023/01/06 12:01:00;;;;;;;0.00;0.00;;;9.60;87.00;;;;;;4988271;28;20141;-68
2023/01/06 12:03:33;;;;;;;0.00;0.00;;;9.60;87.00;;;;;;4996798;28;20061;-69
2023/01/06 12:06:21;;;;;;;0.00;0.00;;;9.60;86.80;;;;;;5002623;28;20056;-69
2023/01/06 12:09:02;;;;;;;0.00;0.00;;;9.60;86.80;;;;;;5008813;28;20410;-71
2023/01/06 12:11:44;;;;;;;0.00;0.00;;;9.60;87.10;;;;;;4993656;28;20129;-70
2023/01/06 12:14:14;;;;;;;;;;;9.60;86.90;;;;;;5002223;28;20089;-70
2023/01/06 12:16:51;;;;;;;0.00;0.00;;;9.50;87.10;;;;;;4989456;28;19921;-69
2023/01/06 12:19:25;;;;;;;0.00;0.00;;;9.60;87.10;;;;;;5009332;28;20054;-69
2023/01/06 12:21:52;;;;;;;0.00;0.00;;;9.50;87.10;;;;;;4968678;28;20050;-69
2023/01/06 12:24:19;;;;;;;0.00;0.00;;;9.50;87.10;;;;;;5009834;28;20058;-68
2023/01/06 12:26:46;;;;;;;0.00;0.00;;;9.40;86.90;;;;;;5010717;28;20054;-69
2023/01/06 12:29:18;;;;;;;0.22;0.22;;;9.40;87.10;;;;;;5011042;28;20050;-70
2023/01/06 12:32:12;;;;;;;0.00;0.00;;;9.40;87.30;;;;;;5010434;28;20045;-70
2023/01/06 12:34:46;;;;;;;0.00;0.00;;;9.40;87.20;;;;;;4969722;28;20054;-69
2023/01/06 12:37:33;;;;;;;0.00;0.00;;;9.40;87.30;;;;;;5004242;28;20050;-69
2023/01/06 12:40:18;;;;;;;0.00;0.00;;;9.30;87.50;;;;;;4988504;28;20057;-69
2023/01/06 12:43:02;;;;;;;0.63;0.63;;;9.40;87.50;;;;;;4987106;28;20395;-70
2023/01/06 12:45:41;;;;;;;0.10;0.10;;;9.40;87.60;;;;;;5007556;28;20061;-69
2023/01/06 12:48:30;;;;;;;0.00;0.00;;;9.40;87.20;;;;;;5007514;28;20076;-70
2023/01/06 12:51:06;;;;;;;0.00;0.00;;;9.40;86.80;;;;;;5006974;28;20165;-70
2023/01/06 12:53:39;;;;;;;0.00;0.00;;;9.30;87.00;;;;;;5006739;28;20046;-71
2023/01/06 12:56:23;;;;;;;0.00;0.00;;;9.30;87.20;;;;;;5009956;28;20049;-70
2023/01/06 12:59:21;;;;;;;0.00;0.00;;;9.30;87.30;;;;;;5010946;28;20034;-69
2023/01/06 13:02:03;;;;;;;0.00;0.00;;;9.30;87.10;;;;;;5004352;28;20057;-68
2023/01/06 13:05:03;;;;;;;0.00;0.00;;;9.20;87.20;;;;;;5011450;28;20060;-69
2023/01/06 13:07:41;;;;;;;0.05;0.05;;;9.30;87.20;;;;;;5009027;28;20791;-69
2023/01/06 13:10:29;;;;;;;0.00;0.00;;;9.30;87.20;;;;;;5008722;28;20057;-69
2023/01/06 13:13:22;;;;;;;0.93;0.22;;;9.20;87.10;;;;;;5007647;28;20042;-68
2023/01/06 13:15:48;;;;;;;0.00;0.00;;;9.20;87.10;;;;;;4999487;28;20046;-69
2023/01/06 13:18:31;;;;;;;0.00;0.00;;;9.30;87.20;;;;;;5006670;28;20481;-69
2023/01/06 13:21:03;;;;;;;0.00;0.00;;;9.30;87.20;;;;;;4995069;28;20069;-69